createdAt,value
2022-08-05T00:00:52.943Z,7.70
2022-08-05T00:03:25.048Z,7.53
2022-08-05T00:06:06.539Z,5.50
2022-08-05T00:08:49.049Z,4.43
2022-08-05T00:11:34.654Z,9.48
2022-08-05T00:14:12.908Z,12.48
2022-08-05T00:16:52.537Z,12.38
2022-08-05T00:19:33.573Z,5.65
2022-08-05T00:22:05.902Z,14.68
2022-08-05T00:24:38.564Z,5.05
2022-08-05T00:27:16.882Z,6.57
2022-08-05T00:29:48.936Z,8.75
2022-08-05T00:32:21.100Z,10.68
2022-08-05T00:35:06.276Z,12.85
2022-08-05T00:37:51.344Z,11.07
2022-08-05T00:40:29.413Z,8.45
2022-08-05T00:43:07.396Z,8.52
2022-08-05T00:45:43.668Z,9.57
2022-08-05T00:48:27.735Z,4.53
2022-08-05T00:51:49.906Z,3.78
2022-08-05T00:54:02.472Z,8.25
2022-08-05T00:56:35.191Z,7.13
2022-08-05T00:59:07.339Z,9.60
2022-08-05T01:01:42.904Z,9.63
2022-08-05T01:04:26.633Z,4.38
2022-08-05T01:06:59.101Z,5.93
2022-08-05T01:09:31.066Z,7.35
2022-08-05T01:12:18.660Z,9.52
2022-08-05T01:15:05.180Z,5.40
2022-08-05T01:17:54.245Z,7.13
2022-08-05T01:20:54.280Z,8.23
2022-08-05T01:23:44.989Z,11.63
2022-08-05T01:27:00.891Z,7.82
2022-08-05T01:29:55.036Z,7.78
2022-08-05T01:32:34.090Z,9.55
2022-08-05T01:35:10.951Z,11.55
2022-08-05T01:38:04.479Z,10.77
2022-08-05T01:40:38.454Z,9.05
2022-08-05T01:43:22.393Z,15.10
2022-08-05T01:45:57.828Z,8.57
2022-08-05T01:48:32.234Z,15.88
2022-08-05T01:51:12.323Z,6.95
2022-08-05T01:53:57.048Z,5.60
2022-08-05T01:58:11.970Z,9.23
2022-08-05T01:59:27.885Z,7.03
2022-08-05T02:02:03.466Z,11.63
2022-08-05T02:04:38.769Z,10.15
2022-08-05T02:07:12.861Z,9.80
2022-08-05T02:09:54.528Z,9.68
2022-08-05T02:12:55.385Z,13.80
2022-08-05T02:15:36.101Z,14.07
2022-08-05T02:18:31.308Z,10.68
2022-08-05T02:21:20.476Z,11.18
2022-08-05T02:23:57.530Z,6.90
2022-08-05T02:26:41.105Z,11.52
2022-08-05T02:29:58.574Z,9.32
2022-08-05T02:32:24.037Z,11.30
2022-08-05T02:37:53.980Z,12.30
2022-08-05T02:40:26.869Z,13.20
2022-08-05T02:42:59.927Z,15.30
2022-08-05T02:45:52.221Z,10.18
2022-08-05T02:48:29.384Z,7.03
2022-08-05T02:51:03.564Z,11.40
2022-08-05T02:53:39.748Z,8.07
2022-08-05T02:56:16.134Z,12.13
2022-08-05T02:58:52.710Z,15.10
2022-08-05T03:01:27.027Z,7.20
2022-08-05T03:04:14.269Z,11.88
2022-08-05T03:06:56.028Z,9.18
2022-08-05T03:09:37.561Z,11.32
2022-08-05T03:12:51.871Z,17.77
2022-08-05T03:15:24.562Z,14.13
2022-08-05T03:17:57.614Z,17.10
2022-08-05T03:20:29.913Z,14.18
2022-08-05T03:23:05.026Z,12.02
2022-08-05T03:26:04.762Z,9.75
2022-08-05T03:28:32.431Z,10.30
2022-08-05T03:31:05.363Z,13.45
2022-08-05T03:33:51.156Z,12.85
2022-08-05T03:36:30.571Z,11.93
2022-08-05T03:39:19.921Z,21.02
2022-08-05T03:41:58.906Z,12.55
2022-08-05T03:44:30.949Z,10.77
2022-08-05T03:47:05.593Z,20.25
2022-08-05T03:49:51.944Z,15.80
2022-08-05T03:52:38.380Z,13.02
2022-08-05T03:56:05.718Z,12.77
2022-08-05T03:58:30.021Z,15.02
2022-08-05T04:01:05.100Z,11.88
2022-08-05T04:03:38.950Z,18.30
2022-08-05T04:06:11.318Z,14.18
2022-08-05T04:08:45.307Z,12.10
2022-08-05T04:11:20.765Z,14.57
2022-08-05T04:13:55.637Z,11.13
2022-08-05T04:16:32.587Z,17.98
2022-08-05T04:19:10.735Z,14.10
2022-08-05T04:22:09.624Z,11.45
2022-08-05T04:24:34.743Z,9.90
2022-08-05T04:27:06.827Z,11.40
2022-08-05T04:29:39.884Z,12.52
2022-08-05T04:32:11.899Z,9.80
2022-08-05T04:34:43.881Z,10.45
2022-08-05T04:37:15.861Z,10.55
2022-08-05T04:39:52.661Z,10.20
2022-08-05T04:42:25.291Z,12.00
2022-08-05T04:44:58.127Z,13.93
2022-08-05T04:47:38.550Z,16.20
2022-08-05T04:50:15.414Z,12.13
2022-08-05T04:53:09.784Z,8.52
2022-08-05T04:56:15.063Z,8.15
2022-08-05T04:58:36.666Z,13.68
2022-08-05T05:01:08.894Z,13.35
2022-08-05T05:03:42.233Z,17.08
2022-08-05T05:06:39.000Z,15.05
2022-08-05T05:09:07.013Z,14.68
2022-08-05T05:11:42.122Z,10.48
2022-08-05T05:14:31.996Z,11.30
2022-08-05T05:17:07.455Z,7.32
2022-08-05T05:19:44.205Z,10.38
2022-08-05T05:22:22.742Z,13.57
2022-08-05T05:25:00.223Z,8.57
2022-08-05T05:27:41.253Z,13.90
2022-08-05T05:30:29.348Z,16.50
2022-08-05T05:33:14.015Z,12.90
2022-08-05T05:35:48.824Z,9.05
2022-08-05T05:38:27.051Z,12.25
2022-08-05T05:40:59.669Z,13.85
2022-08-05T05:43:57.524Z,18.85
2022-08-05T05:46:23.610Z,15.23
2022-08-05T05:48:55.634Z,12.10
2022-08-05T05:51:27.852Z,13.23
2022-08-05T05:54:00.194Z,14.90
2022-08-05T05:56:34.717Z,15.82
2022-08-05T05:59:08.166Z,13.15
2022-08-05T06:01:57.122Z,12.95
2022-08-05T06:04:30.109Z,14.48
2022-08-05T06:07:02.107Z,12.18
2022-08-05T06:10:01.467Z,10.50
2022-08-05T06:12:27.279Z,10.63
2022-08-05T06:15:02.360Z,13.98
2022-08-05T06:17:53.447Z,16.42
2022-08-05T06:20:26.211Z,16.67
2022-08-05T06:23:00.666Z,17.38
2022-08-05T06:26:12.620Z,12.32
2022-08-05T06:28:28.642Z,12.25
2022-08-05T06:31:00.775Z,10.30
2022-08-05T06:34:07.117Z,14.63
2022-08-05T06:36:53.548Z,13.18
2022-08-05T06:39:28.097Z,16.92
2022-08-05T06:42:04.000Z,15.63
2022-08-05T06:44:36.319Z,14.20
2022-08-05T06:47:10.577Z,15.50
2022-08-05T06:50:05.123Z,13.02
2022-08-05T06:52:40.393Z,22.38
2022-08-05T06:55:12.531Z,13.43
2022-08-05T06:58:03.577Z,15.50
2022-08-05T07:00:38.905Z,12.63
2022-08-05T07:03:13.190Z,18.35
2022-08-05T07:05:48.551Z,17.55
2022-08-05T07:08:25.246Z,16.05
2022-08-05T07:10:57.410Z,15.45
2022-08-05T07:13:58.179Z,13.55
2022-08-05T07:18:08.130Z,20.58
2022-08-05T07:22:33.984Z,22.70
2022-08-05T07:25:23.515Z,17.58
2022-08-05T07:28:04.257Z,12.05
2022-08-05T07:30:40.061Z,15.02
2022-08-05T07:33:16.190Z,15.32
2022-08-05T07:36:02.762Z,16.50
2022-08-05T07:38:43.628Z,12.07
2022-08-05T07:42:13.980Z,14.13
2022-08-05T07:44:14.531Z,10.57
2022-08-05T07:46:51.292Z,13.73
2022-08-05T07:49:23.522Z,10.32
2022-08-05T07:51:55.464Z,12.27
2022-08-05T07:54:30.670Z,13.45
2022-08-05T07:57:23.666Z,10.38
2022-08-05T07:59:56.555Z,10.15
2022-08-05T08:02:31.017Z,10.07
2022-08-05T08:05:21.720Z,10.32
2022-08-05T08:07:59.774Z,8.75
2022-08-05T08:10:32.365Z,12.25
2022-08-05T08:13:05.702Z,10.23
2022-08-05T08:16:35.793Z,14.60
2022-08-05T08:18:30.264Z,13.10
2022-08-05T08:21:04.019Z,16.55
2022-08-05T08:24:03.163Z,13.85
2022-08-05T08:26:33.443Z,12.18
2022-08-05T08:30:03.585Z,17.73
2022-08-05T08:31:57.659Z,9.13
2022-08-05T08:34:33.203Z,12.93
2022-08-05T08:37:05.659Z,21.77
2022-08-05T08:39:38.164Z,17.00
2022-08-05T08:42:33.839Z,13.18
2022-08-05T08:45:22.307Z,14.68
2022-08-05T08:48:12.545Z,13.50
2022-08-05T08:51:22.544Z,14.73
2022-08-05T08:53:48.978Z,13.48
2022-08-05T08:56:27.162Z,21.05
2022-08-05T08:59:00.774Z,18.20
2022-08-05T09:01:33.301Z,20.67
2022-08-05T09:04:05.436Z,25.30
2022-08-05T09:06:42.728Z,22.15
2022-08-05T09:09:17.912Z,20.33
2022-08-05T09:11:55.395Z,19.55
2022-08-05T09:14:58.880Z,19.33
2022-08-05T09:17:42.810Z,20.13
2022-08-05T09:20:36.663Z,17.02
2022-08-05T09:23:19.057Z,26.27
2022-08-05T09:26:07.314Z,13.13
2022-08-05T09:28:41.578Z,14.80
2022-08-05T09:31:23.307Z,10.68
2022-08-05T09:34:12.419Z,10.77
2022-08-05T09:36:56.185Z,8.98
2022-08-05T09:39:41.677Z,11.65
2022-08-05T09:42:28.242Z,8.77
2022-08-05T09:45:17.388Z,9.35
2022-08-05T09:48:00.566Z,11.43
2022-08-05T09:50:37.692Z,10.95
2022-08-05T09:53:17.160Z,14.98
2022-08-05T09:56:04.732Z,13.30
2022-08-05T09:58:37.211Z,12.47
2022-08-05T10:01:22.366Z,15.30
2022-08-05T10:04:10.439Z,14.88
2022-08-05T10:07:19.523Z,19.75
2022-08-05T10:10:13.990Z,16.80
2022-08-05T10:12:54.270Z,10.98
2022-08-05T10:15:34.408Z,9.02
2022-08-05T10:18:22.367Z,9.48
2022-08-05T10:21:12.001Z,12.00
2022-08-05T10:23:59.031Z,12.15
2022-08-05T10:26:33.936Z,10.93
2022-08-05T10:29:08.600Z,8.82
2022-08-05T10:32:52.386Z,10.52
2022-08-05T10:34:34.998Z,11.45
2022-08-05T10:37:13.646Z,12.98
2022-08-05T10:39:59.311Z,15.07
2022-08-05T10:42:38.770Z,14.05
2022-08-05T10:45:23.870Z,14.45
2022-08-05T10:48:57.464Z,14.07
2022-08-05T10:51:53.095Z,13.23
2022-08-05T10:55:11.086Z,17.00
2022-08-05T10:57:51.260Z,15.15
2022-08-05T11:00:30.184Z,17.38
2022-08-05T11:03:23.251Z,11.65
2022-08-05T11:06:16.155Z,16.75
2022-08-05T11:09:18.752Z,14.35
2022-08-05T11:12:05.005Z,8.25
2022-08-05T11:15:01.336Z,12.55
2022-08-05T11:17:57.130Z,5.25
2022-08-05T11:20:46.090Z,12.93
2022-08-05T11:24:05.717Z,8.70
2022-08-05T11:26:32.443Z,7.68
2022-08-05T11:29:13.960Z,12.60
2022-08-05T11:31:56.714Z,10.80
2022-08-05T11:34:51.998Z,7.85
2022-08-05T11:38:29.156Z,7.60
2022-08-05T11:41:34.276Z,13.48
2022-08-05T11:44:08.402Z,9.88
2022-08-05T11:46:58.062Z,7.60
2022-08-05T11:49:42.896Z,12.38
2022-08-05T11:52:23.528Z,7.15
2022-08-05T11:55:07.619Z,7.43
2022-08-05T11:58:10.029Z,7.18
2022-08-05T12:00:40.468Z,8.27
2022-08-05T12:03:29.650Z,5.40
2022-08-05T12:06:06.653Z,6.32
2022-08-05T12:08:55.049Z,8.27
2022-08-05T12:11:40.252Z,9.05
2022-08-05T12:14:13.850Z,8.27
2022-08-05T12:16:47.552Z,5.75
2022-08-05T12:20:26.399Z,7.68
2022-08-05T12:22:20.000Z,3.95
2022-08-05T12:24:53.138Z,3.60
2022-08-05T12:27:33.261Z,5.40
2022-08-05T12:32:53.711Z,4.03
2022-08-05T12:35:36.908Z,9.18
2022-08-05T12:38:11.859Z,2.47
2022-08-05T12:40:47.226Z,2.53
2022-08-05T12:43:22.348Z,4.10
2022-08-05T12:45:56.867Z,3.88
2022-08-05T12:48:39.950Z,2.47
2022-08-05T12:51:21.848Z,6.10
2022-08-05T12:54:16.829Z,8.38
2022-08-05T12:57:02.506Z,5.88
2022-08-05T13:01:58.500Z,2.30
2022-08-05T13:02:50.968Z,4.28
2022-08-05T13:05:33.878Z,4.40
2022-08-05T13:08:09.555Z,5.50
2022-08-05T13:10:50.736Z,5.05
2022-08-05T13:14:05.713Z,3.35
2022-08-05T13:16:24.974Z,6.15
2022-08-05T13:18:58.944Z,3.13
2022-08-05T13:21:37.907Z,3.53
2022-08-05T13:24:36.240Z,3.70
2022-08-05T13:27:38.115Z,4.78
2022-08-05T13:30:36.065Z,4.95
2022-08-05T13:33:06.590Z,6.07
2022-08-05T13:35:47.663Z,3.90
2022-08-05T13:38:30.507Z,3.83
2022-08-05T13:41:06.272Z,8.98
2022-08-05T13:43:44.916Z,6.68
2022-08-05T13:46:44.375Z,2.83
2022-08-05T13:49:20.037Z,6.60
2022-08-05T13:51:54.111Z,2.08
2022-08-05T13:54:26.505Z,3.67
2022-08-05T13:56:58.662Z,7.15
2022-08-05T13:59:30.999Z,3.92
2022-08-05T14:02:04.845Z,1.85
2022-08-05T14:05:11.480Z,1.52
2022-08-05T14:08:00.276Z,6.03
2022-08-05T14:10:37.542Z,3.72
2022-08-05T14:13:09.753Z,3.53
2022-08-05T14:16:05.386Z,3.08
2022-08-05T14:18:33.646Z,8.18
2022-08-05T14:22:08.336Z,4.57
2022-08-05T14:23:57.738Z,6.40
2022-08-05T14:26:36.812Z,6.38
2022-08-05T14:29:16.300Z,4.75
2022-08-05T14:32:02.246Z,8.38
2022-08-05T14:34:40.972Z,2.70
2022-08-05T14:37:13.304Z,1.85
2022-08-05T14:39:49.637Z,3.20
2022-08-05T14:42:28.861Z,1.83
2022-08-05T14:45:00.881Z,3.38
2022-08-05T14:48:03.137Z,2.85
2022-08-05T14:50:25.511Z,4.53
2022-08-05T14:52:59.601Z,5.25
2022-08-05T14:55:39.459Z,13.70
2022-08-05T15:00:59.725Z,4.93
2022-08-05T15:03:33.675Z,1.45
2022-08-05T15:06:15.420Z,0.63
2022-08-05T15:09:01.442Z,4.18
2022-08-05T15:11:52.921Z,1.92
2022-08-05T15:14:34.595Z,1.25
2022-08-05T15:17:47.201Z,3.92
2022-08-05T15:20:18.630Z,2.30
2022-08-05T15:22:54.370Z,2.45
2022-08-05T15:25:51.637Z,0.70
2022-08-05T15:28:19.218Z,2.67
2022-08-05T15:30:54.355Z,1.38
2022-08-05T15:34:19.280Z,6.72
2022-08-05T15:36:25.511Z,2.65
2022-08-05T15:40:39.712Z,3.20
2022-08-05T15:41:57.691Z,2.67
2022-08-05T15:44:31.068Z,3.85
2022-08-05T15:47:03.800Z,2.00
2022-08-05T15:49:47.938Z,7.88
2022-08-05T15:52:52.107Z,0.70
2022-08-05T15:55:25.125Z,4.38
2022-08-05T15:58:16.571Z,1.80
2022-08-05T16:00:57.150Z,1.38
2022-08-05T16:03:42.390Z,2.28
2022-08-05T16:06:14.389Z,3.15
2022-08-05T16:08:55.403Z,1.30
2022-08-05T16:11:42.449Z,1.80
2022-08-05T16:14:17.066Z,1.15
2022-08-05T16:16:50.033Z,4.53
2022-08-05T16:20:02.902Z,0.93
2022-08-05T16:22:15.462Z,1.88
2022-08-05T16:24:51.408Z,3.10
2022-08-05T16:27:32.104Z,2.08
2022-08-05T16:30:26.514Z,5.88
2022-08-05T16:33:01.249Z,1.27
2022-08-05T16:35:33.657Z,3.17
2022-08-05T16:38:18.679Z,4.63
2022-08-05T16:41:01.061Z,2.70
2022-08-05T16:43:35.453Z,1.50
2022-08-05T16:46:23.468Z,2.90
2022-08-05T16:48:56.763Z,3.40
2022-08-05T16:51:30.734Z,2.20
2022-08-05T16:54:18.625Z,0.60
2022-08-05T16:56:54.770Z,6.43
2022-08-05T16:59:30.768Z,2.40
2022-08-05T17:02:02.985Z,2.60
2022-08-05T17:04:34.983Z,2.42
2022-08-05T17:07:11.393Z,4.93
2022-08-05T17:09:58.186Z,4.30
2022-08-05T17:12:51.326Z,2.70
2022-08-05T17:15:23.137Z,6.85
2022-08-05T17:18:01.407Z,4.85
2022-08-05T17:20:33.348Z,9.82
2022-08-05T17:23:05.429Z,1.33
2022-08-05T17:25:40.253Z,3.42
2022-08-05T17:28:15.457Z,2.83
2022-08-05T17:30:51.783Z,4.32
2022-08-05T17:33:24.272Z,1.73
2022-08-05T17:36:09.014Z,1.55
2022-08-05T17:38:48.580Z,1.40
2022-08-05T17:42:18.472Z,2.53
2022-08-05T17:44:13.753Z,5.38
2022-08-05T17:46:48.798Z,2.80
2022-08-05T17:49:23.789Z,2.50
2022-08-05T17:51:56.026Z,1.42
2022-08-05T17:54:28.045Z,3.40
2022-08-05T17:57:01.786Z,2.25
2022-08-05T17:59:34.450Z,1.70
2022-08-05T18:02:10.938Z,3.53
2022-08-05T18:04:53.460Z,2.25
2022-08-05T18:07:32.949Z,1.30
2022-08-05T18:10:21.025Z,3.13
2022-08-05T18:12:53.432Z,6.70
2022-08-05T18:15:27.615Z,3.17
2022-08-05T18:18:07.776Z,0.77
2022-08-05T18:20:43.710Z,1.48
2022-08-05T18:23:19.207Z,2.20
2022-08-05T18:25:57.611Z,2.45
2022-08-05T18:28:31.357Z,0.82
2022-08-05T18:31:03.412Z,7.40
2022-08-05T18:33:46.749Z,1.30
2022-08-05T18:36:19.603Z,1.83
2022-08-05T18:39:00.090Z,3.13
2022-08-05T18:41:56.952Z,3.05
2022-08-05T18:44:33.404Z,3.08
2022-08-05T18:47:07.432Z,1.00
2022-08-05T18:50:00.089Z,2.25
2022-08-05T18:52:33.637Z,2.08
2022-08-05T18:55:12.670Z,4.40
2022-08-05T18:57:52.746Z,2.25
2022-08-05T19:00:29.080Z,2.00
2022-08-05T19:03:04.041Z,2.03
2022-08-05T19:06:11.605Z,3.13
2022-08-05T19:08:30.733Z,2.65
2022-08-05T19:11:04.648Z,1.20
2022-08-05T19:13:38.644Z,2.20
2022-08-05T19:16:24.527Z,3.17
2022-08-05T19:19:00.549Z,3.40
2022-08-05T19:21:34.778Z,3.85
2022-08-05T19:24:12.540Z,4.10
2022-08-05T19:26:55.487Z,3.40
2022-08-05T19:29:36.455Z,4.20
2022-08-05T19:32:11.668Z,5.82
2022-08-05T19:34:55.145Z,4.10
2022-08-05T19:37:29.857Z,1.35
2022-08-05T19:40:10.362Z,2.63
2022-08-05T19:43:04.749Z,2.35
2022-08-05T19:45:36.554Z,6.25
2022-08-05T19:48:14.283Z,2.88
2022-08-05T19:50:46.766Z,3.70
2022-08-05T19:54:03.380Z,4.35
2022-08-05T19:56:13.899Z,3.67
2022-08-05T19:58:54.096Z,3.45
2022-08-05T20:01:28.253Z,3.53
2022-08-05T20:04:01.513Z,5.60
2022-08-05T20:06:37.766Z,5.00
2022-08-05T20:09:18.655Z,4.82
2022-08-05T20:11:51.581Z,4.72
2022-08-05T20:14:27.117Z,8.88
2022-08-05T20:16:59.434Z,4.55
2022-08-05T20:19:36.190Z,5.15
2022-08-05T20:22:13.348Z,8.87
2022-08-05T20:24:45.348Z,6.75
2022-08-05T20:27:17.574Z,10.20
2022-08-05T20:29:58.371Z,6.68
2022-08-05T20:32:30.800Z,9.32
2022-08-05T20:35:05.767Z,11.77
2022-08-05T20:38:07.648Z,11.23
2022-08-05T20:40:32.819Z,13.52
2022-08-05T20:43:05.014Z,14.40
2022-08-05T20:45:47.745Z,13.93
2022-08-05T20:48:28.853Z,12.30
2022-08-05T20:51:08.022Z,10.85
2022-08-05T20:53:40.771Z,11.48
2022-08-05T20:56:13.127Z,8.63
2022-08-05T20:58:45.197Z,10.38
2022-08-05T21:01:17.232Z,4.30
2022-08-05T21:03:49.361Z,5.55
2022-08-05T21:06:27.562Z,10.02
2022-08-05T21:09:00.335Z,9.32
2022-08-05T21:12:10.519Z,6.45
2022-08-05T21:14:26.614Z,5.88
2022-08-05T21:16:58.782Z,5.85
2022-08-05T21:19:47.582Z,4.10
2022-08-05T21:22:23.408Z,9.63
2022-08-05T21:24:56.488Z,2.88
2022-08-05T21:27:29.252Z,9.27
2022-08-05T21:30:11.671Z,12.20
2022-08-05T21:32:49.675Z,2.45
2022-08-05T21:35:29.423Z,5.80
2022-08-05T21:38:02.458Z,7.93
2022-08-05T21:40:34.460Z,5.85
2022-08-05T21:43:06.476Z,4.20
2022-08-05T21:45:56.845Z,3.28
2022-08-05T21:48:32.294Z,4.70
2022-08-05T21:52:16.525Z,5.57
2022-08-05T21:54:03.570Z,3.50
2022-08-05T21:56:36.001Z,5.60
2022-08-05T22:01:57.155Z,4.22
2022-08-05T22:04:29.131Z,7.28
2022-08-05T22:07:01.428Z,8.18
2022-08-05T22:09:46.091Z,1.38
2022-08-05T22:12:19.387Z,0.70
2022-08-05T22:14:58.832Z,3.17
2022-08-05T22:17:31.870Z,3.40
2022-08-05T22:20:14.860Z,3.80
2022-08-05T22:23:16.671Z,2.60
2022-08-05T22:26:09.850Z,2.78
2022-08-05T22:28:43.469Z,2.78
2022-08-05T22:31:17.430Z,4.18
2022-08-05T22:33:55.491Z,3.67
2022-08-05T22:36:30.231Z,7.35
2022-08-05T22:39:09.512Z,5.20
2022-08-05T22:42:10.632Z,1.85
2022-08-05T22:44:35.759Z,2.08
2022-08-05T22:47:07.724Z,1.73
2022-08-05T22:50:19.697Z,3.03
2022-08-05T22:52:34.289Z,4.00
2022-08-05T22:55:19.590Z,4.38
2022-08-05T22:57:53.771Z,3.10
2022-08-05T23:00:27.110Z,3.17
2022-08-05T23:02:59.398Z,3.30
2022-08-05T23:05:31.400Z,4.20
2022-08-05T23:08:08.383Z,2.30
2022-08-05T23:10:43.524Z,3.03
2022-08-05T23:13:15.517Z,4.25
2022-08-05T23:15:50.246Z,5.65
2022-08-05T23:18:22.919Z,1.45
2022-08-05T23:20:55.029Z,1.80
2022-08-05T23:23:29.933Z,4.25
2022-08-05T23:26:06.050Z,2.97
2022-08-05T23:28:39.072Z,1.30
2022-08-05T23:31:17.021Z,5.13
2022-08-05T23:34:05.107Z,7.28
2022-08-05T23:36:44.336Z,5.10
2022-08-05T23:39:31.901Z,2.30
2022-08-05T23:42:14.517Z,2.63
2022-08-05T23:44:46.745Z,3.53
2022-08-05T23:47:26.619Z,3.05
2022-08-05T23:49:59.910Z,2.33
2022-08-05T23:52:35.983Z,3.40
2022-08-05T23:55:21.484Z,3.00
2022-08-05T23:57:53.774Z,2.50
